Time;durP1;ratioP1;P1;durP2;ratioP2;P2;SDS_P1;SDS_P2;PMS_P1;PMS_P2;Temp;Humidity;BMP_temperature;BMP_pressure;BME280_temperature;BME280_humidity;BME280_pressure;Samples;Min_cycle;Max_cycle;Signal;HPM_P1;HPM_P2
2023/03/07 00:01:02;;;;;;;;;;;;;;;12.38;38.46;98076.94;4505343;31;33908;-82
2023/03/07 00:03:29;;;;;;;;;;;;;;;12.39;38.31;98083.88;4511183;31;34016;-82
2023/03/07 00:06:01;;;;;;;;;;;;;;;12.42;38.25;98082.97;4512150;31;34207;-83
2023/03/07 00:08:28;;;;;;;;;;;;;;;12.47;38.33;98078.59;4513038;31;35150;-82
2023/03/07 00:10:59;;;;;;;;;;;;;;;12.55;37.97;98081.09;4513220;31;34274;-82
2023/03/07 00:13:27;;;;;;;;;;;;;;;12.42;38.23;98080.37;4512079;31;33369;-83
2023/03/07 00:15:54;;;;;;;;;;;;;;;12.40;38.37;98088.19;4513607;31;34093;-83
2023/03/07 00:18:23;;;;;;;;;;;;;;;12.14;38.88;98080.69;4513205;31;34082;-82
2023/03/07 00:20:57;;;;;;;;;;;;;;;12.33;38.58;98077.88;4512553;31;34387;-82
2023/03/07 00:23:24;;;;;;;;;;;;;;;12.12;38.90;98082.47;4511308;31;33161;-82
2023/03/07 00:26:03;;;;;;;;;;;;;;;12.22;38.70;98087.53;4513111;31;33989;-83
2023/03/07 00:28:31;;;;;;;;;;;;;;;11.98;39.01;98086.09;4513255;31;34466;-82
2023/03/07 00:30:59;;;;;;;;;;;;;;;11.94;39.29;98098.25;4510883;31;32884;-83
2023/03/07 00:33:26;;;;;;;;;;;;;;;11.68;39.82;98096.69;4513883;31;33138;-82
2023/03/07 00:35:54;;;;;;;;;;;;;;;11.68;39.95;98086.31;4514166;31;34303;-82
2023/03/07 00:38:22;;;;;;;;;;;;;;;11.97;39.42;98085.22;4513897;31;34071;-83
2023/03/07 00:41:09;;;;;;;;;;;;;;;11.83;39.49;98081.88;4514113;31;33716;-82
2023/03/07 00:43:37;;;;;;;;;;;;;;;11.90;39.47;98083.56;4512800;31;34383;-80
2023/03/07 00:46:04;;;;;;;;;;;;;;;12.13;38.92;98094.56;4513655;31;34528;-82
2023/03/07 00:48:33;;;;;;;;;;;;;;;12.20;38.54;98086.69;4514129;31;35124;-83
2023/03/07 00:51:00;;;;;;;;;;;;;;;12.27;38.54;98083.16;4514035;31;34705;-82
2023/03/07 00:53:27;;;;;;;;;;;;;;;12.16;38.74;98080.69;4513683;31;33801;-82
2023/03/07 00:55:56;;;;;;;;;;;;;;;12.21;38.74;98080.63;4513949;31;34190;-82
2023/03/07 00:58:24;;;;;;;;;;;;;;;11.90;39.28;98070.56;4513301;31;33931;-81
2023/03/07 01:00:51;;;;;;;;;;;;;;;11.97;38.88;98074.84;4513555;31;35322;-83
2023/03/07 01:03:19;;;;;;;;;;;;;;;11.85;39.24;98077.53;4511798;31;33507;-83
2023/03/07 01:05:46;;;;;;;;;;;;;;;12.09;38.91;98072.09;4512809;31;34871;-82
2023/03/07 01:08:14;;;;;;;;;;;;;;;12.07;39.11;98068.62;4512663;31;34354;-82
2023/03/07 01:10:42;;;;;;;;;;;;;;;11.87;39.41;98070.59;4511924;31;33922;-82
2023/03/07 01:13:10;;;;;;;;;;;;;;;11.66;39.89;98072.47;4511227;31;33284;-82
2023/03/07 01:15:37;;;;;;;;;;;;;;;12.00;39.29;98069.59;4511368;31;34957;-81
2023/03/07 01:18:06;;;;;;;;;;;;;;;11.99;39.29;98060.06;4514692;31;34462;-81
2023/03/07 01:20:34;;;;;;;;;;;;;;;12.09;39.18;98053.91;4514502;31;34485;-80
2023/03/07 01:23:01;;;;;;;;;;;;;;;12.20;38.90;98056.41;4513024;31;33278;-81
2023/03/07 01:25:28;;;;;;;;;;;;;;;11.83;39.40;98059.38;4515025;31;33461;-83
2023/03/07 01:27:56;;;;;;;;;;;;;;;11.86;39.57;98063.69;4514437;31;34397;-82
2023/03/07 01:30:23;;;;;;;;;;;;;;;12.08;39.33;98059.09;4515129;31;34309;-82
2023/03/07 01:32:54;;;;;;;;;;;;;;;12.23;39.02;98060.69;4515831;31;33015;-82
2023/03/07 01:35:22;;;;;;;;;;;;;;;12.17;39.21;98062.47;4515285;31;34112;-81
2023/03/07 01:37:50;;;;;;;;;;;;;;;12.14;39.15;98065.09;4506964;31;34395;-82
2023/03/07 01:40:17;;;;;;;;;;;;;;;11.99;39.73;98062.69;4512798;31;34684;-83
2023/03/07 01:42:45;;;;;;;;;;;;;;;12.08;39.71;98059.97;4514491;31;32919;-83
2023/03/07 01:45:12;;;;;;;;;;;;;;;12.26;39.34;98058.03;4515183;31;33825;-83
2023/03/07 01:47:40;;;;;;;;;;;;;;;12.28;39.49;98057.16;4514589;31;34220;-82
2023/03/07 01:50:10;;;;;;;;;;;;;;;12.22;39.67;98056.38;4514022;31;34216;-82
2023/03/07 01:52:39;;;;;;;;;;;;;;;12.37;39.37;98053.59;4513726;31;32886;-82
2023/03/07 01:55:12;;;;;;;;;;;;;;;12.27;39.37;98046.75;4514520;31;34112;-82
2023/03/07 01:57:41;;;;;;;;;;;;;;;12.38;39.36;98042.28;4514257;31;34093;-83
2023/03/07 02:00:10;;;;;;;;;;;;;;;12.41;39.27;98042.25;4513980;31;34090;-82
2023/03/07 02:02:39;;;;;;;;;;;;;;;12.28;39.44;98038.12;4513788;31;33728;-81
2023/03/07 02:05:24;;;;;;;;;;;;;;;12.34;39.43;98043.22;4514042;31;34823;-83
2023/03/07 02:07:52;;;;;;;;;;;;;;;12.35;39.14;98032.81;4513867;31;34170;-83
2023/03/07 02:10:20;;;;;;;;;;;;;;;12.19;39.52;98036.47;4503488;31;33958;-82
2023/03/07 02:12:47;;;;;;;;;;;;;;;12.03;39.88;98033.19;4501040;31;32831;-82
2023/03/07 02:15:14;;;;;;;;;;;;;;;12.05;39.94;98034.03;4514668;31;34157;-82
2023/03/07 02:17:42;;;;;;;;;;;;;;;12.21;39.65;98029.53;4506789;31;34526;-81
2023/03/07 02:20:09;;;;;;;;;;;;;;;12.26;39.51;98027.72;4510197;31;34048;-82
2023/03/07 02:22:37;;;;;;;;;;;;;;;12.32;39.35;98032.84;4515310;31;33413;-82
2023/03/07 02:25:16;;;;;;;;;;;;;;;12.43;39.03;98027.53;4514342;31;33772;-83
2023/03/07 02:27:44;;;;;;;;;;;;;;;12.29;39.15;98032.88;4513194;31;35191;-83
2023/03/07 02:30:12;;;;;;;;;;;;;;;12.08;39.73;98038.31;4511644;31;34206;-82
2023/03/07 02:32:39;;;;;;;;;;;;;;;12.05;39.94;98038.38;4514088;31;33653;-82
2023/03/07 02:35:11;;;;;;;;;;;;;;;11.78;40.23;98034.28;4508466;31;33700;-82
2023/03/07 02:37:39;;;;;;;;;;;;;;;12.07;39.86;98037.47;4512993;31;34266;-82
2023/03/07 02:40:07;;;;;;;;;;;;;;;12.13;39.70;98036.56;4511727;31;34122;-82
2023/03/07 02:42:35;;;;;;;;;;;;;;;11.78;40.45;98042.06;4513270;31;32938;-81
2023/03/07 02:45:04;;;;;;;;;;;;;;;11.86;40.32;98037.72;4512642;31;34007;-81
2023/03/07 02:47:31;;;;;;;;;;;;;;;12.06;40.04;98040.09;4513961;31;35136;-82
2023/03/07 02:49:59;;;;;;;;;;;;;;;12.15;39.91;98040.84;4514471;31;34749;-82
2023/03/07 02:52:27;;;;;;;;;;;;;;;12.01;40.23;98034.06;4513774;31;32918;-82
2023/03/07 02:54:55;;;;;;;;;;;;;;;11.96;40.47;98039.31;4514316;31;33768;-81
2023/03/07 02:57:22;;;;;;;;;;;;;;;11.80;40.73;98038.59;4514436;31;34175;-83
2023/03/07 02:59:50;;;;;;;;;;;;;;;12.12;40.14;98034.81;4513042;31;33643;-82
2023/03/07 03:02:17;;;;;;;;;;;;;;;12.11;40.03;98033.97;4514105;31;33757;-83
2023/03/07 03:04:45;;;;;;;;;;;;;;;12.07;40.16;98027.06;4513017;31;34098;-82
2023/03/07 03:07:47;;;;;;;;;;;;;;;12.29;39.77;98039.81;4512317;31;34372;-83
2023/03/07 03:10:15;;;;;;;;;;;;;;;12.17;39.83;98039.09;4514752;31;34094;-83
2023/03/07 03:12:42;;;;;;;;;;;;;;;12.32;39.67;98032.00;4514539;31;33081;-82
2023/03/07 03:15:10;;;;;;;;;;;;;;;12.29;39.56;98032.03;4512868;31;33682;-81
2023/03/07 03:17:38;;;;;;;;;;;;;;;12.25;39.67;98030.34;4513763;31;34127;-83
2023/03/07 03:20:10;;;;;;;;;;;;;;;12.42;39.25;98030.97;4513807;31;34116;-82
2023/03/07 03:22:40;;;;;;;;;;;;;;;12.43;39.17;98030.12;4507830;31;34089;-82
2023/03/07 03:25:10;;;;;;;;;;;;;;;12.30;39.29;98029.41;4515210;31;34182;-82
2023/03/07 03:27:38;;;;;;;;;;;;;;;12.44;39.24;98030.97;4513451;31;34355;-83
2023/03/07 03:30:06;;;;;;;;;;;;;;;12.34;39.50;98027.63;4513080;31;34233;-82
2023/03/07 03:32:37;;;;;;;;;;;;;;;12.28;39.55;98025.97;4514021;31;32721;-83
2023/03/07 03:35:05;;;;;;;;;;;;;;;12.35;39.28;98031.94;4513568;31;34375;-83
2023/03/07 03:37:33;;;;;;;;;;;;;;;12.26;39.42;98026.87;4512812;31;33967;-81
2023/03/07 03:40:05;;;;;;;;;;;;;;;12.21;39.41;98026.06;4514866;31;33937;-82
2023/03/07 03:42:32;;;;;;;;;;;;;;;12.25;39.50;98019.97;4513187;31;32976;-82
2023/03/07 03:45:00;;;;;;;;;;;;;;;12.39;39.16;98023.25;4514191;31;33832;-81
2023/03/07 03:47:27;;;;;;;;;;;;;;;12.28;39.32;98014.72;4513319;31;35177;-82
2023/03/07 03:49:55;;;;;;;;;;;;;;;12.25;39.06;98023.41;4514422;31;34680;-83
2023/03/07 03:52:22;;;;;;;;;;;;;;;12.33;39.00;98023.31;4513750;31;33119;-83
2023/03/07 03:54:49;;;;;;;;;;;;;;;12.44;38.83;98023.19;4513167;31;34058;-82
2023/03/07 03:57:19;;;;;;;;;;;;;;;12.47;38.60;98015.34;4508595;31;34148;-82
2023/03/07 03:59:46;;;;;;;;;;;;;;;12.42;38.58;98023.19;4513301;31;34519;-83
2023/03/07 04:02:15;;;;;;;;;;;;;;;12.45;38.48;98019.69;4513182;31;33055;-82
2023/03/07 04:04:42;;;;;;;;;;;;;;;12.28;38.79;98022.53;4513387;31;33432;-82
2023/03/07 04:07:09;;;;;;;;;;;;;;;12.30;38.84;98018.16;4512295;31;33966;-81
2023/03/07 04:09:37;;;;;;;;;;;;;;;12.22;38.83;98022.59;4513982;31;33624;-82
2023/03/07 04:12:05;;;;;;;;;;;;;;;12.45;38.27;98022.28;4511737;31;33275;-82
2023/03/07 04:14:32;;;;;;;;;;;;;;;11.99;39.03;98022.84;4513828;31;34784;-82
2023/03/07 04:16:59;;;;;;;;;;;;;;;12.15;38.56;98017.44;4513533;31;35169;-82
2023/03/07 04:19:27;;;;;;;;;;;;;;;12.22;38.57;98017.38;4511335;31;33910;-82
2023/03/07 04:21:56;;;;;;;;;;;;;;;11.92;39.07;98035.03;4512700;31;33262;-81
2023/03/07 04:24:23;;;;;;;;;;;;;;;11.83;39.24;98029.94;4513174;31;34827;-82
2023/03/07 04:26:51;;;;;;;;;;;;;;;11.59;39.73;98029.31;4512581;31;35257;-81
2023/03/07 04:29:19;;;;;;;;;;;;;;;11.78;39.49;98023.91;4510543;31;34665;-82
2023/03/07 04:31:48;;;;;;;;;;;;;;;11.69;39.71;98036.09;4513099;31;32856;-82
2023/03/07 04:34:16;;;;;;;;;;;;;;;11.62;39.88;98041.38;4513669;31;33615;-82
2023/03/07 04:36:43;;;;;;;;;;;;;;;11.67;39.90;98037.00;4511545;31;34016;-82
2023/03/07 04:39:11;;;;;;;;;;;;;;;11.80;39.80;98042.94;4512716;31;33585;-82
2023/03/07 04:41:39;;;;;;;;;;;;;;;11.74;39.96;98042.97;4513674;31;33041;-82
2023/03/07 04:44:06;;;;;;;;;;;;;;;11.72;40.07;98047.34;4512554;31;34270;-82
2023/03/07 04:46:34;;;;;;;;;;;;;;;11.67;40.11;98043.06;4512163;31;35300;-82
2023/03/07 04:49:02;;;;;;;;;;;;;;;11.38;40.65;98050.25;4512840;31;35093;-81
2023/03/07 04:51:29;;;;;;;;;;;;;;;11.64;40.33;98050.87;4512735;31;33387;-82
2023/03/07 04:53:56;;;;;;;;;;;;;;;11.93;39.62;98045.44;4515285;31;34232;-82
2023/03/07 04:56:24;;;;;;;;;;;;;;;11.63;40.26;98049.16;4514881;31;34080;-82
2023/03/07 04:58:52;;;;;;;;;;;;;;;11.65;40.38;98050.00;4513946;31;34975;-81
2023/03/07 05:01:19;;;;;;;;;;;;;;;11.77;40.15;98051.59;4512375;31;33341;-82
2023/03/07 05:03:47;;;;;;;;;;;;;;;11.88;39.92;98052.41;4514409;31;34031;-80
2023/03/07 05:06:15;;;;;;;;;;;;;;;11.96;39.73;98047.13;4513488;31;34097;-82
2023/03/07 05:08:45;;;;;;;;;;;;;;;11.75;40.16;98044.72;4514513;31;34042;-82
2023/03/07 05:11:13;;;;;;;;;;;;;;;11.83;40.02;98048.09;4514988;31;33206;-82
2023/03/07 05:13:40;;;;;;;;;;;;;;;11.65;40.37;98038.75;4515449;31;34901;-81
2023/03/07 05:16:07;;;;;;;;;;;;;;;11.63;40.36;98049.16;4506023;31;33579;-81
2023/03/07 05:18:35;;;;;;;;;;;;;;;11.64;40.37;98045.69;4513317;31;33597;-81
2023/03/07 05:21:02;;;;;;;;;;;;;;;11.61;40.41;98043.09;4514900;31;33395;-82
2023/03/07 05:23:30;;;;;;;;;;;;;;;11.87;39.79;98044.63;4515901;31;34867;-81
2023/03/07 05:25:57;;;;;;;;;;;;;;;11.63;40.24;98048.28;4513852;31;35276;-82
2023/03/07 05:28:25;;;;;;;;;;;;;;;11.68;40.16;98060.34;4515117;31;34342;-83
2023/03/07 05:30:52;;;;;;;;;;;;;;;11.29;40.85;98055.50;4514376;31;34109;-82
2023/03/07 05:33:20;;;;;;;;;;;;;;;11.62;40.34;98054.34;4515750;31;34045;-81
2023/03/07 05:35:47;;;;;;;;;;;;;;;11.81;39.92;98055.88;4511558;31;33999;-80
2023/03/07 05:38:15;;;;;;;;;;;;;;;12.03;39.62;98058.31;4515724;31;34176;-83
2023/03/07 05:40:43;;;;;;;;;;;;;;;12.05;39.59;98047.03;4516018;31;33589;-82
2023/03/07 05:43:10;;;;;;;;;;;;;;;11.94;39.83;98051.47;4515701;31;34564;-82
2023/03/07 05:45:37;;;;;;;;;;;;;;;11.89;40.04;98056.72;4515365;31;35050;-80
2023/03/07 05:48:05;;;;;;;;;;;;;;;12.15;39.64;98056.41;4512369;31;34642;-80
2023/03/07 05:50:32;;;;;;;;;;;;;;;12.26;39.42;98064.09;4513820;31;33386;-80
2023/03/07 05:52:59;;;;;;;;;;;;;;;12.13;39.76;98057.34;4513405;31;34805;-82
2023/03/07 05:55:27;;;;;;;;;;;;;;;12.05;39.94;98065.22;4515138;31;35354;-82
2023/03/07 05:57:54;;;;;;;;;;;;;;;11.93;40.09;98066.22;4514968;31;33642;-82
2023/03/07 06:00:22;;;;;;;;;;;;;;;12.20;39.76;98065.91;4499677;31;34265;-82
2023/03/07 06:02:51;;;;;;;;;;;;;;;12.23;39.68;98065.87;4511354;31;34827;-83
2023/03/07 06:05:19;;;;;;;;;;;;;;;12.30;39.45;98075.31;4514929;31;34426;-81
2023/03/07 06:07:47;;;;;;;;;;;;;;;12.39;39.22;98068.28;4515336;31;34758;-82
2023/03/07 06:10:15;;;;;;;;;;;;;;;12.58;39.07;98068.91;4515854;31;33436;-82
2023/03/07 06:12:42;;;;;;;;;;;;;;;12.71;39.03;98076.56;4514871;31;34761;-81
2023/03/07 06:15:10;;;;;;;;;;;;;;;12.72;39.03;98073.06;4515104;31;34350;-81
2023/03/07 06:17:37;;;;;;;;;;;;;;;12.80;38.82;98079.03;4514949;31;34117;-82
2023/03/07 06:20:07;;;;;;;;;;;;;;;12.76;39.02;98074.75;4515191;31;33437;-82
2023/03/07 06:22:37;;;;;;;;;;;;;;;12.87;38.94;98078.91;4514813;31;33884;-82
2023/03/07 06:25:05;;;;;;;;;;;;;;;12.99;38.72;98074.41;4515288;31;34110;-82
2023/03/07 06:27:33;;;;;;;;;;;;;;;12.86;39.11;98091.94;4514094;31;34495;-81
2023/03/07 06:30:00;;;;;;;;;;;;;;;12.77;39.17;98086.88;4515555;31;33574;-83
2023/03/07 06:32:29;;;;;;;;;;;;;;;13.20;38.16;98081.91;4523897;31;33710;-83
2023/03/07 06:34:56;;;;;;;;;;;;;;;12.60;39.36;98085.34;4531517;31;34066;-83
2023/03/07 06:37:25;;;;;;;;;;;;;;;11.78;41.33;98096.59;4519271;31;33798;-83
2023/03/07 06:39:53;;;;;;;;;;;;;;;11.12;42.87;98103.19;4517331;31;33116;-83
2023/03/07 06:42:20;;;;;;;;;;;;;;;12.35;40.08;98095.19;4515772;31;35056;-81
2023/03/07 06:44:47;;;;;;;;;;;;;;;11.38;42.19;98097.81;4525729;31;34045;-82
2023/03/07 06:47:15;;;;;;;;;;;;;;;11.74;41.18;98100.97;4526589;31;33613;-83
2023/03/07 06:49:42;;;;;;;;;;;;;;;12.52;39.51;98094.13;4519014;31;33016;-84
2023/03/07 06:52:10;;;;;;;;;;;;;;;12.26;40.16;98097.03;4515359;31;33711;-84
2023/03/07 06:54:37;;;;;;;;;;;;;;;12.32;40.28;98096.97;4523627;31;34313;-82
2023/03/07 06:57:05;;;;;;;;;;;;;;;12.25;40.39;98097.91;4531041;31;34130;-84
2023/03/07 06:59:32;;;;;;;;;;;;;;;13.09;37.74;98102.87;4531561;31;33905;-83
2023/03/07 07:02:01;;;;;;;;;;;;;;;12.79;38.73;98098.97;4517039;31;33367;-84
2023/03/07 07:04:29;;;;;;;;;;;;;;;12.71;39.38;98098.22;4523569;31;34374;-84
2023/03/07 07:06:56;;;;;;;;;;;;;;;12.83;39.10;98102.38;4515474;31;33507;-84
2023/03/07 07:09:24;;;;;;;;;;;;;;;13.11;37.89;98098.53;4515238;31;33018;-83
2023/03/07 07:11:52;;;;;;;;;;;;;;;13.31;37.25;98089.59;4515145;31;34732;-83
2023/03/07 07:14:20;;;;;;;;;;;;;;;13.33;37.41;98087.81;4514840;31;33814;-82
2023/03/07 07:16:48;;;;;;;;;;;;;;;12.62;35.40;98093.16;4528782;31;34416;-83
2023/03/07 07:19:15;;;;;;;;;;;;;;;13.07;34.85;98102.06;4531060;31;34123;-83
2023/03/07 07:21:43;;;;;;;;;;;;;;;13.13;35.67;98096.75;4531000;31;34845;-83
2023/03/07 07:24:11;;;;;;;;;;;;;;;13.14;36.17;98095.91;4520819;31;34427;-82
2023/03/07 07:26:38;;;;;;;;;;;;;;;13.46;35.76;98101.53;4514965;31;34738;-84
2023/03/07 07:29:06;;;;;;;;;;;;;;;13.18;35.53;98101.03;4514758;31;33176;-84
2023/03/07 07:31:34;;;;;;;;;;;;;;;13.03;35.99;98112.50;4514855;31;34518;-83
2023/03/07 07:34:02;;;;;;;;;;;;;;;12.82;36.12;98111.09;4514069;31;33891;-83
2023/03/07 07:36:31;;;;;;;;;;;;;;;13.26;35.71;98104.41;4513996;31;34183;-83
2023/03/07 07:39:05;;;;;;;;;;;;;;;13.17;36.09;98105.38;4513849;31;33136;-83
2023/03/07 07:41:33;;;;;;;;;;;;;;;13.50;34.92;98104.03;4513616;31;34533;-84
2023/03/07 07:44:01;;;;;;;;;;;;;;;13.28;34.55;98105.25;4514879;31;35395;-83
2023/03/07 07:46:30;;;;;;;;;;;;;;;13.49;34.34;98109.28;4515053;31;34269;-83
2023/03/07 07:48:58;;;;;;;;;;;;;;;12.76;35.42;98109.41;4515054;31;34118;-82
2023/03/07 07:51:25;;;;;;;;;;;;;;;13.14;34.30;98121.91;4514896;31;34969;-82
2023/03/07 07:53:53;;;;;;;;;;;;;;;12.31;35.97;98118.63;4514667;31;34274;-84
2023/03/07 07:56:20;;;;;;;;;;;;;;;12.49;35.93;98117.56;4514715;31;34363;-83
2023/03/07 07:58:47;;;;;;;;;;;;;;;12.97;35.04;98118.69;4514271;31;33943;-83
2023/03/07 08:01:16;;;;;;;;;;;;;;;12.91;34.64;98110.94;4514297;31;34206;-84
2023/03/07 08:03:43;;;;;;;;;;;;;;;12.04;36.02;98105.03;4514719;31;34409;-83
2023/03/07 08:06:11;;;;;;;;;;;;;;;12.40;35.52;98118.53;4514353;31;34946;-83
2023/03/07 08:08:38;;;;;;;;;;;;;;;12.40;35.43;98110.72;4514451;31;33626;-83
2023/03/07 08:11:05;;;;;;;;;;;;;;;13.03;33.83;98108.19;4514403;31;34316;-82
2023/03/07 08:13:33;;;;;;;;;;;;;;;12.83;33.86;98113.66;4513392;31;35091;-82
2023/03/07 08:16:06;;;;;;;;;;;;;;;12.59;34.33;98108.78;4513903;31;34228;-82
2023/03/07 08:18:34;;;;;;;;;;;;;;;13.04;34.52;98112.50;4514168;31;33083;-83
2023/03/07 08:21:01;;;;;;;;;;;;;;;12.96;34.15;98105.72;4514075;31;34278;-82
2023/03/07 08:23:28;;;;;;;;;;;;;;;12.93;33.16;98104.00;4514103;31;34085;-83
2023/03/07 08:26:00;;;;;;;;;;;;;;;12.78;33.76;98104.19;4514262;31;34324;-83
2023/03/07 08:28:27;;;;;;;;;;;;;;;13.20;33.45;98102.75;4516233;31;33388;-83
2023/03/07 08:30:54;;;;;;;;;;;;;;;12.99;34.15;98113.44;4515541;31;34783;-84
2023/03/07 08:33:22;;;;;;;;;;;;;;;12.45;33.83;98118.47;4516218;31;34454;-83
2023/03/07 08:35:49;;;;;;;;;;;;;;;12.58;33.67;98115.72;4515619;31;34914;-82
2023/03/07 08:38:16;;;;;;;;;;;;;;;10.87;37.03;98124.94;4516039;31;33299;-83
2023/03/07 08:40:44;;;;;;;;;;;;;;;12.18;34.72;98116.16;4515943;31;34627;-85
2023/03/07 08:43:11;;;;;;;;;;;;;;;12.62;33.50;98114.81;4515540;31;34358;-83
2023/03/07 08:45:38;;;;;;;;;;;;;;;11.81;34.94;98119.94;4516008;31;34209;-82
2023/03/07 08:48:07;;;;;;;;;;;;;;;12.57;33.64;98119.19;4516240;31;33341;-83
2023/03/07 08:50:34;;;;;;;;;;;;;;;12.11;33.50;98122.28;4513665;31;33747;-83
2023/03/07 08:53:02;;;;;;;;;;;;;;;12.60;33.96;98123.50;4515901;31;34451;-84
2023/03/07 08:55:30;;;;;;;;;;;;;;;13.14;32.40;98116.72;4516332;31;34126;-84
2023/03/07 08:57:57;;;;;;;;;;;;;;;12.11;33.31;98119.69;4514744;31;33835;-84
2023/03/07 09:00:24;;;;;;;;;;;;;;;12.72;32.57;98119.88;4516246;31;34184;-84
2023/03/07 09:02:53;;;;;;;;;;;;;;;12.99;32.18;98114.31;4515715;31;35262;-84
2023/03/07 09:05:20;;;;;;;;;;;;;;;13.08;32.22;98124.59;4516045;31;33922;-84
2023/03/07 09:07:47;;;;;;;;;;;;;;;13.72;31.47;98117.59;4515890;31;33363;-85
2023/03/07 09:10:16;;;;;;;;;;;;;;;13.03;31.70;98120.31;4515622;31;34148;-84
2023/03/07 09:12:43;;;;;;;;;;;;;;;12.16;32.86;98123.12;4516000;31;34238;-84
2023/03/07 09:15:10;;;;;;;;;;;;;;;12.04;32.65;98124.97;4515855;31;33762;-83
2023/03/07 09:17:38;;;;;;;;;;;;;;;12.04;32.70;98123.22;4515977;31;33296;-84
2023/03/07 09:20:05;;;;;;;;;;;;;;;13.03;31.71;98129.00;4515831;31;34291;-85
2023/03/07 09:22:32;;;;;;;;;;;;;;;13.11;31.45;98124.56;4515873;31;34920;-84
2023/03/07 09:25:00;;;;;;;;;;;;;;;13.08;31.64;98132.41;4514467;31;33780;-83
2023/03/07 09:27:27;;;;;;;;;;;;;;;13.23;31.83;98114.84;4515958;31;32737;-84
2023/03/07 09:29:54;;;;;;;;;;;;;;;13.11;32.08;98129.75;4515726;31;33819;-84
2023/03/07 09:32:22;;;;;;;;;;;;;;;13.17;32.31;98126.19;4515759;31;34559;-83
2023/03/07 09:34:50;;;;;;;;;;;;;;;13.09;32.59;98126.31;4514524;31;35064;-83
2023/03/07 09:37:17;;;;;;;;;;;;;;;11.88;34.51;98119.91;4515723;31;32876;-84
2023/03/07 09:39:47;;;;;;;;;;;;;;;12.86;33.57;98117.97;4515620;31;35148;-84
2023/03/07 09:42:17;;;;;;;;;;;;;;;12.18;34.35;98118.75;4515752;31;35119;-84
2023/03/07 09:44:44;;;;;;;;;;;;;;;12.67;34.37;98117.34;4516185;31;34269;-84
2023/03/07 09:47:24;;;;;;;;;;;;;;;12.77;32.39;98113.75;4515936;31;33652;-84
2023/03/07 09:49:51;;;;;;;;;;;;;;;12.77;32.68;98115.50;4515497;31;34973;-84
2023/03/07 09:52:20;;;;;;;;;;;;;;;11.98;32.97;98118.09;4514583;31;34257;-84
2023/03/07 09:54:58;;;;;;;;;;;;;;;12.87;31.07;98112.72;4514237;31;34317;-84
2023/03/07 09:57:33;;;;;;;;;;;;;;;12.51;32.12;98111.47;4514654;31;33052;-84
2023/03/07 10:00:24;;;;;;;;;;;;;;;13.01;31.84;98109.94;4514481;31;34848;-83
2023/03/07 10:02:51;;;;;;;;;;;;;;;12.60;32.16;98113.94;4514430;31;35357;-83
2023/03/07 10:05:21;;;;;;;;;;;;;;;13.21;31.00;98107.06;4515741;31;34288;-84
2023/03/07 10:07:48;;;;;;;;;;;;;;;13.18;31.09;98114.03;4515776;31;33904;-83
2023/03/07 10:10:26;;;;;;;;;;;;;;;13.34;31.85;98111.25;4514570;31;33707;-84
2023/03/07 10:12:56;;;;;;;;;;;;;;;13.73;30.32;98103.66;4514075;31;35057;-84
2023/03/07 10:15:44;;;;;;;;;;;;;;;12.85;32.25;98117.09;4514529;31;34676;-85
2023/03/07 10:18:20;;;;;;;;;;;;;;;13.18;32.36;98112.28;4515357;31;34095;-84
2023/03/07 10:20:52;;;;;;;;;;;;;;;13.52;30.34;98109.22;4515561;31;35183;-82
2023/03/07 10:23:27;;;;;;;;;;;;;;;13.49;31.27;98104.09;4515260;31;33987;-84
2023/03/07 10:26:14;;;;;;;;;;;;;;;13.60;29.83;98113.44;4514251;31;35111;-84
2023/03/07 10:28:41;;;;;;;;;;;;;;;13.80;29.24;98120.06;4515478;31;33136;-83
2023/03/07 10:31:12;;;;;;;;;;;;;;;13.48;30.47;98113.59;4514088;31;34139;-83
2023/03/07 10:33:40;;;;;;;;;;;;;;;13.80;30.57;98104.44;4515244;31;35049;-84
2023/03/07 10:36:34;;;;;;;;;;;;;;;13.98;29.12;98104.09;4513864;31;34748;-84
2023/03/07 10:39:17;;;;;;;;;;;;;;;13.61;30.34;98109.09;4512665;31;32858;-85
2023/03/07 10:41:44;;;;;;;;;;;;;;;13.25;30.47;98100.94;4515421;31;34258;-84
2023/03/07 10:44:13;;;;;;;;;;;;;;;13.28;29.43;98105.25;4515345;31;35238;-83
2023/03/07 10:46:40;;;;;;;;;;;;;;;14.21;29.33;98095.00;4513975;31;34092;-83
2023/03/07 10:49:26;;;;;;;;;;;;;;;13.33;31.21;98095.63;4513772;31;34030;-84
2023/03/07 10:51:53;;;;;;;;;;;;;;;13.75;30.46;98091.50;4515127;31;33774;-84
2023/03/07 10:54:21;;;;;;;;;;;;;;;14.26;30.75;98087.94;4515351;31;34396;-83
2023/03/07 10:57:08;;;;;;;;;;;;;;;13.25;32.46;98081.88;4514188;31;34539;-84
2023/03/07 10:59:36;;;;;;;;;;;;;;;13.32;33.66;98073.09;4514052;31;33194;-84
2023/03/07 11:02:20;;;;;;;;;;;;;;;13.78;33.40;98077.53;4514062;31;34530;-85
2023/03/07 11:04:47;;;;;;;;;;;;;;;14.01;32.80;98088.37;4513983;31;34431;-83
2023/03/07 11:07:28;;;;;;;;;;;;;;;13.94;32.77;98075.50;4515047;31;34829;-84
2023/03/07 11:09:56;;;;;;;;;;;;;;;14.13;33.03;98076.91;4515181;31;34065;-85
2023/03/07 11:12:24;;;;;;;;;;;;;;;14.14;33.41;98077.75;4513776;31;34278;-84
2023/03/07 11:14:58;;;;;;;;;;;;;;;14.31;33.22;98062.63;4515122;31;34547;-83
2023/03/07 11:17:26;;;;;;;;;;;;;;;14.12;32.98;98056.94;4515142;31;35086;-84
2023/03/07 11:19:54;;;;;;;;;;;;;;;14.13;33.30;98061.28;4515438;31;33396;-84
2023/03/07 11:22:32;;;;;;;;;;;;;;;14.21;33.42;98061.12;4513647;31;34598;-83
2023/03/07 11:25:01;;;;;;;;;;;;;;;13.59;35.48;98048.34;4513581;31;35355;-84
2023/03/07 11:27:31;;;;;;;;;;;;;;;13.56;36.18;98043.19;4513573;31;34009;-83
2023/03/07 11:30:15;;;;;;;;;;;;;;;13.31;37.46;98033.19;4514933;31;33252;-84
2023/03/07 11:33:03;;;;;;;;;;;;;;;13.79;36.79;98043.66;4513757;31;34429;-83
2023/03/07 11:35:49;;;;;;;;;;;;;;;13.65;37.48;98035.22;4513766;31;34387;-83
2023/03/07 11:38:25;;;;;;;;;;;;;;;13.67;37.02;98029.97;4514659;31;34323;-84
2023/03/07 11:41:04;;;;;;;;;;;;;;;13.43;36.97;98026.91;4513412;31;33500;-83
2023/03/07 11:43:41;;;;;;;;;;;;;;;12.34;38.76;98031.06;4514589;31;35049;-84
2023/03/07 11:46:09;;;;;;;;;;;;;;;13.06;37.85;98022.25;4514832;31;35417;-84
2023/03/07 11:48:40;;;;;;;;;;;;;;;13.30;37.03;98020.22;4513648;31;34316;-84
2023/03/07 11:51:12;;;;;;;;;;;;;;;13.46;36.89;98026.87;4514711;31;33447;-84
2023/03/07 11:54:00;;;;;;;;;;;;;;;12.64;37.66;98035.00;4513472;31;34115;-84
2023/03/07 11:56:29;;;;;;;;;;;;;;;11.91;39.32;98031.59;4513453;31;34062;-83
2023/03/07 11:58:57;;;;;;;;;;;;;;;11.61;40.22;98037.06;4513524;31;34047;-84
2023/03/07 12:01:24;;;;;;;;;;;;;;;11.71;39.87;98028.31;4513241;31;33316;-84
2023/03/07 12:04:10;;;;;;;;;;;;;;;12.70;38.35;98023.69;4514676;31;33698;-83
2023/03/07 12:06:47;;;;;;;;;;;;;;;11.86;39.74;98024.75;4514794;31;34252;-84
2023/03/07 12:09:18;;;;;;;;;;;;;;;12.60;38.37;98029.88;4514738;31;33953;-84
2023/03/07 12:11:54;;;;;;;;;;;;;;;13.10;36.66;98016.12;4514657;31;33398;-84
2023/03/07 12:14:25;;;;;;;;;;;;;;;12.54;37.03;98017.84;4514493;31;34294;-83
2023/03/07 12:17:03;;;;;;;;;;;;;;;12.44;37.88;98012.78;4513502;31;34165;-83
2023/03/07 12:19:31;;;;;;;;;;;;;;;12.97;36.82;98012.00;4512982;31;34463;-84
2023/03/07 12:22:08;;;;;;;;;;;;;;;13.08;36.58;98004.03;4514419;31;33973;-83
2023/03/07 12:24:47;;;;;;;;;;;;;;;13.05;36.94;97999.75;4513141;31;33911;-84
2023/03/07 12:27:18;;;;;;;;;;;;;;;12.85;37.68;98017.41;4513111;31;33693;-84
2023/03/07 12:30:12;;;;;;;;;;;;;;;12.66;37.31;98002.06;4514175;31;34154;-84
2023/03/07 12:32:39;;;;;;;;;;;;;;;12.62;37.00;98003.00;4489837;31;33199;-84
2023/03/07 12:35:14;;;;;;;;;;;;;;;12.63;37.67;98004.72;4513076;31;34065;-83
2023/03/07 12:37:49;;;;;;;;;;;;;;;12.00;38.42;97998.59;4512862;31;35283;-84
2023/03/07 12:40:16;;;;;;;;;;;;;;;12.35;37.90;98005.94;4514108;31;35076;-83
2023/03/07 12:42:46;;;;;;;;;;;;;;;12.29;38.07;98000.84;4514141;31;33334;-83
2023/03/07 12:45:20;;;;;;;;;;;;;;;11.99;38.83;98004.69;4512863;31;34979;-84
2023/03/07 12:47:51;;;;;;;;;;;;;;;12.21;38.74;98010.47;4512541;31;34247;-84
2023/03/07 12:50:21;;;;;;;;;;;;;;;11.35;40.50;98000.97;4514065;31;34144;-83
2023/03/07 12:52:52;;;;;;;;;;;;;;;11.69;39.71;98009.28;4513902;31;32960;-84
2023/03/07 12:55:22;;;;;;;;;;;;;;;12.18;39.44;98001.81;4513850;31;34932;-84
2023/03/07 12:58:16;;;;;;;;;;;;;;;12.03;39.18;98001.16;4513831;31;34176;-84
2023/03/07 13:00:46;;;;;;;;;;;;;;;11.57;41.05;98001.63;4489562;31;34076;-83